Time;durP1;ratioP1;P1;durP2;ratioP2;P2;SDS_P1;SDS_P2;PMS_P1;PMS_P2;Temp;Humidity;BMP_temperature;BMP_pressure;BME280_temperature;BME280_humidity;BME280_pressure;Samples;Min_cycle;Max_cycle;Signal;HPM_P1;HPM_P2
2023/09/18 00:01:11;;;;;;;18.67;8.50;;;20.00;99.90;;;;;;5021133;28;20064;-59
2023/09/18 00:03:37;;;;;;;15.93;9.20;;;20.00;99.90;;;;;;5026911;28;20056;-59
2023/09/18 00:06:02;;;;;;;12.48;8.02;;;20.00;99.90;;;;;;5020300;28;20026;-59
2023/09/18 00:08:28;;;;;;;18.55;9.35;;;20.00;99.90;;;;;;5028598;28;20059;-61
2023/09/18 00:10:55;;;;;;;13.60;7.47;;;20.00;99.90;;;;;;5027971;28;20021;-57
2023/09/18 00:13:21;;;;;;;16.35;8.85;;;20.00;99.90;;;;;;5026269;28;20171;-59
2023/09/18 00:15:48;;;;;;;19.25;8.48;;;20.00;99.90;;;;;;5020691;28;20044;-59
2023/09/18 00:18:15;;;;;;;18.58;8.63;;;20.00;99.90;;;;;;5025184;28;20034;-58
2023/09/18 00:20:41;;;;;;;14.25;7.97;;;20.00;99.90;;;;;;5021605;28;20026;-58
2023/09/18 00:23:07;;;;;;;14.57;8.57;;;20.00;99.90;;;;;;5025941;28;20076;-61
2023/09/18 00:25:33;;;;;;;20.27;8.10;;;20.00;99.90;;;;;;5025480;28;20039;-61
2023/09/18 00:27:59;;;;;;;14.95;8.23;;;20.00;99.90;;;;;;5026821;28;20566;-58
2023/09/18 00:30:24;;;;;;;15.57;8.52;;;20.00;99.90;;;;;;5017099;28;20034;-61
2023/09/18 00:32:50;;;;;;;13.20;8.43;;;20.00;99.90;;;;;;5021563;28;20029;-62
2023/09/18 00:35:16;;;;;;;14.00;7.95;;;20.00;99.90;;;;;;5015959;28;20030;-59
2023/09/18 00:37:42;;;;;;;15.13;7.80;;;20.00;99.90;;;;;;5022810;28;20036;-59
2023/09/18 00:40:09;;;;;;;12.98;7.10;;;20.00;99.90;;;;;;5026592;28;20033;-59
2023/09/18 00:42:34;;;;;;;12.88;6.75;;;20.00;99.90;;;;;;5025394;28;20022;-59
2023/09/18 00:45:00;;;;;;;13.73;7.60;;;20.00;99.90;;;;;;5019587;28;20529;-57
2023/09/18 00:47:25;;;;;;;12.38;7.63;;;20.00;99.90;;;;;;5023580;28;20083;-61
2023/09/18 00:49:52;;;;;;;18.33;8.57;;;20.00;99.90;;;;;;5021080;28;20036;-60
2023/09/18 00:52:19;;;;;;;12.90;7.53;;;20.00;99.90;;;;;;5023373;28;20042;-59
2023/09/18 00:54:47;;;;;;;16.17;8.52;;;19.90;99.90;;;;;;5022880;28;20519;-60
2023/09/18 00:57:13;;;;;;;17.48;8.88;;;19.80;99.90;;;;;;5020689;28;20033;-61
2023/09/18 00:59:39;;;;;;;18.08;7.90;;;19.70;99.90;;;;;;5022253;28;20415;-54
2023/09/18 01:02:05;;;;;;;16.00;7.65;;;19.70;99.90;;;;;;5013608;28;20099;-58
2023/09/18 01:04:33;;;;;;;15.70;8.23;;;19.70;99.90;;;;;;5020534;28;20112;-59
2023/09/18 01:07:03;;;;;;;14.27;8.13;;;19.70;99.90;;;;;;5022031;28;20022;-61
2023/09/18 01:09:30;;;;;;;17.25;9.05;;;19.70;99.90;;;;;;5028366;28;20017;-61
2023/09/18 01:12:25;;;;;;;13.60;7.97;;;19.70;99.90;;;;;;5020722;28;20044;-61
2023/09/18 01:14:58;;;;;;;15.77;7.40;;;19.70;99.90;;;;;;5021953;28;20045;-61
2023/09/18 01:17:25;;;;;;;13.52;7.97;;;19.70;99.90;;;;;;5020343;28;20068;-61
2023/09/18 01:19:50;;;;;;;20.80;8.30;;;19.70;99.90;;;;;;5022828;28;20527;-61
2023/09/18 01:22:17;;;;;;;12.02;7.90;;;19.70;99.90;;;;;;5017019;28;20050;-58
2023/09/18 01:24:45;;;;;;;14.90;7.80;;;19.70;99.90;;;;;;5020069;28;20071;-61
2023/09/18 01:27:16;;;;;;;13.35;7.50;;;19.70;99.90;;;;;;5020008;28;20121;-59
2023/09/18 01:29:46;;;;;;;24.20;8.68;;;19.70;99.90;;;;;;5016421;28;20119;-60
2023/09/18 01:32:11;;;;;;;18.20;7.43;;;19.70;99.90;;;;;;5013515;28;20038;-56
2023/09/18 01:34:45;;;;;;;16.50;8.23;;;19.70;99.90;;;;;;5023300;28;20034;-57
2023/09/18 01:37:12;;;;;;;12.40;7.53;;;19.70;99.90;;;;;;5022130;28;20086;-60
2023/09/18 01:39:39;;;;;;;20.27;7.95;;;19.70;99.90;;;;;;5022064;28;20112;-61
2023/09/18 01:42:06;;;;;;;16.55;8.40;;;19.70;99.90;;;;;;5020831;28;20026;-58
2023/09/18 01:44:33;;;;;;;16.40;8.27;;;19.70;99.90;;;;;;5026309;28;20633;-56
2023/09/18 01:47:01;;;;;;;15.65;7.38;;;19.70;99.90;;;;;;5023367;28;20484;-57
2023/09/18 01:49:32;;;;;;;11.60;7.00;;;19.70;99.90;;;;;;5021448;28;20555;-59
2023/09/18 01:51:58;;;;;;;21.10;7.75;;;19.80;99.90;;;;;;5022754;28;20111;-60
2023/09/18 01:54:25;;;;;;;9.90;6.75;;;19.80;99.90;;;;;;5021800;28;20034;-59
2023/09/18 01:56:51;;;;;;;13.02;6.68;;;19.80;99.90;;;;;;5024159;28;20030;-61
2023/09/18 01:59:17;;;;;;;21.42;7.00;;;19.90;99.90;;;;;;5016063;28;20026;-58
2023/09/18 02:01:43;;;;;;;15.25;7.60;;;19.90;99.90;;;;;;5022939;28;20032;-55
2023/09/18 02:04:09;;;;;;;17.60;7.63;;;19.90;99.90;;;;;;5015613;28;20034;-58
2023/09/18 02:06:35;;;;;;;13.80;7.90;;;19.90;99.90;;;;;;5022878;28;20049;-62
2023/09/18 02:09:01;;;;;;;12.18;6.85;;;19.90;99.90;;;;;;5015386;28;20420;-62
2023/09/18 02:11:27;;;;;;;18.92;7.65;;;19.90;99.90;;;;;;5023581;28;20172;-62
2023/09/18 02:13:53;;;;;;;14.00;7.75;;;19.90;99.90;;;;;;5018549;28;20068;-58
2023/09/18 02:16:21;;;;;;;17.13;7.75;;;19.90;99.90;;;;;;5021097;28;20127;-59
2023/09/18 02:18:46;;;;;;;15.35;7.30;;;20.00;99.90;;;;;;5021647;28;20040;-61
2023/09/18 02:21:19;;;;;;;15.73;7.03;;;20.00;99.90;;;;;;5026285;28;20025;-61
2023/09/18 02:23:45;;;;;;;18.23;7.88;;;20.10;99.90;;;;;;5018714;28;20029;-61
2023/09/18 02:26:10;;;;;;;15.00;8.15;;;20.10;99.90;;;;;;5025134;28;20037;-60
2023/09/18 02:28:36;;;;;;;12.77;7.03;;;20.10;99.90;;;;;;5018965;28;20055;-62
2023/09/18 02:31:02;;;;;;;13.43;7.10;;;20.10;99.90;;;;;;5022183;28;20116;-57
2023/09/18 02:33:28;;;;;;;16.65;7.45;;;20.10;99.90;;;;;;5017901;28;20404;-59
2023/09/18 02:35:53;;;;;;;19.05;7.47;;;20.10;99.90;;;;;;5025244;28;20029;-62
2023/09/18 02:38:19;;;;;;;13.55;7.32;;;20.10;99.90;;;;;;5021280;28;20025;-60
2023/09/18 02:40:44;;;;;;;12.63;7.45;;;20.20;99.90;;;;;;5022176;28;20049;-61
2023/09/18 02:43:10;;;;;;;14.63;7.88;;;20.10;99.90;;;;;;5023102;28;20087;-61
2023/09/18 02:45:35;;;;;;;19.85;8.18;;;20.10;99.90;;;;;;5023736;28;20021;-60
2023/09/18 02:48:01;;;;;;;20.13;7.75;;;20.00;99.90;;;;;;5022228;28;20031;-62
2023/09/18 02:50:26;;;;;;;13.85;8.15;;;20.00;99.90;;;;;;5024800;28;20017;-62
2023/09/18 02:52:52;;;;;;;14.40;8.48;;;20.00;99.90;;;;;;5025588;28;20017;-61
2023/09/18 02:55:18;;;;;;;15.07;8.00;;;19.90;99.90;;;;;;5022954;28;20516;-60
2023/09/18 02:57:43;;;;;;;16.58;7.78;;;19.90;99.90;;;;;;5029454;28;20020;-60
2023/09/18 03:00:09;;;;;;;15.98;8.95;;;19.90;99.90;;;;;;5020585;28;20514;-59
2023/09/18 03:02:35;;;;;;;18.95;8.70;;;19.90;99.90;;;;;;5025738;28;20079;-62
2023/09/18 03:05:01;;;;;;;17.58;9.02;;;19.90;99.90;;;;;;5020232;28;20026;-60
2023/09/18 03:07:29;;;;;;;13.95;8.30;;;19.80;99.90;;;;;;5021027;28;20571;-60
2023/09/18 03:09:55;;;;;;;19.38;9.18;;;19.80;99.90;;;;;;5024428;28;20033;-61
2023/09/18 03:12:22;;;;;;;18.48;8.85;;;19.80;99.90;;;;;;5020461;28;20032;-60
2023/09/18 03:14:48;;;;;;;16.08;9.63;;;19.80;99.90;;;;;;5025858;28;20052;-55
2023/09/18 03:17:13;;;;;;;20.42;10.48;;;19.70;99.90;;;;;;5031540;28;20037;-59
2023/09/18 03:19:39;;;;;;;15.25;10.00;;;19.70;99.90;;;;;;5023934;28;20030;-61
2023/09/18 03:22:04;;;;;;;18.98;9.73;;;19.70;99.90;;;;;;5030492;28;20507;-59
2023/09/18 03:24:30;;;;;;;17.67;10.38;;;19.60;99.90;;;;;;5021124;28;20558;-60
2023/09/18 03:26:55;;;;;;;21.83;10.40;;;19.60;99.90;;;;;;5033474;28;20021;-61
2023/09/18 03:29:21;;;;;;;16.90;10.27;;;19.60;99.90;;;;;;5016792;28;20703;-59
2023/09/18 03:31:46;;;;;;;18.60;9.75;;;19.60;99.90;;;;;;5030953;28;20404;-60
2023/09/18 03:34:13;;;;;;;25.50;11.57;;;19.60;99.90;;;;;;5019655;28;20361;-60
2023/09/18 03:36:39;;;;;;;22.20;10.45;;;19.60;99.90;;;;;;5030492;28;21760;-59
2023/09/18 03:39:05;;;;;;;20.83;8.93;;;19.60;99.90;;;;;;5017979;28;20185;-60
2023/09/18 03:41:34;;;;;;;24.85;10.60;;;19.60;99.90;;;;;;5020680;28;20109;-61
2023/09/18 03:44:02;;;;;;;19.15;9.35;;;19.70;99.90;;;;;;5030625;28;20021;-61
2023/09/18 03:46:28;;;;;;;25.52;8.10;;;19.70;99.90;;;;;;5028529;28;20022;-61
2023/09/18 03:48:54;;;;;;;23.48;8.88;;;19.80;99.90;;;;;;5040000;28;20029;-56
2023/09/18 03:51:20;;;;;;;15.40;8.63;;;19.90;99.90;;;;;;5026673;28;20029;-57
2023/09/18 03:53:47;;;;;;;20.98;8.15;;;19.90;99.90;;;;;;5016264;28;20404;-61
2023/09/18 03:56:13;;;;;;;17.48;8.00;;;19.90;99.90;;;;;;5025093;28;20064;-61
2023/09/18 03:58:38;;;;;;;20.38;7.53;;;20.00;99.90;;;;;;5022970;28;20061;-60
2023/09/18 04:01:04;;;;;;;14.40;6.85;;;20.00;99.90;;;;;;5031772;28;20018;-62
2023/09/18 04:03:29;;;;;;;15.00;7.38;;;20.00;99.90;;;;;;5020366;28;20029;-61
2023/09/18 04:05:55;;;;;;;22.65;6.40;;;19.90;99.90;;;;;;5026581;28;20392;-62
2023/09/18 04:08:20;;;;;;;13.50;6.05;;;20.00;99.90;;;;;;5028812;28;20034;-61
2023/09/18 04:10:46;;;;;;;15.82;6.18;;;20.00;99.90;;;;;;5022878;28;20040;-62
2023/09/18 04:13:12;;;;;;;13.82;5.78;;;20.00;99.90;;;;;;5015224;28;20040;-62
2023/09/18 04:15:38;;;;;;;17.63;6.90;;;20.00;99.90;;;;;;5025080;28;20037;-59
2023/09/18 04:18:06;;;;;;;16.33;6.22;;;20.00;99.90;;;;;;5024605;28;20048;-62
2023/09/18 04:20:32;;;;;;;18.75;6.28;;;20.00;99.90;;;;;;5020311;28;20028;-60
2023/09/18 04:23:17;;;;;;;19.83;6.03;;;20.00;99.90;;;;;;5019906;28;20026;-62
2023/09/18 04:25:42;;;;;;;11.95;5.60;;;19.90;99.90;;;;;;5025163;28;20505;-61
2023/09/18 04:28:08;;;;;;;19.45;5.97;;;19.90;99.90;;;;;;5023888;28;20040;-61
2023/09/18 04:30:33;;;;;;;13.20;6.03;;;19.80;99.90;;;;;;5020169;28;20087;-62
2023/09/18 04:32:59;;;;;;;18.13;6.88;;;19.80;99.90;;;;;;5024501;28;20031;-62
2023/09/18 04:35:25;;;;;;;18.67;6.35;;;19.70;99.90;;;;;;5021088;28;20396;-60
2023/09/18 04:37:55;;;;;;;15.75;6.35;;;19.70;99.90;;;;;;5021582;28;20021;-59
2023/09/18 04:40:21;;;;;;;15.85;5.93;;;19.70;99.90;;;;;;5022271;28;20080;-60
2023/09/18 04:42:46;;;;;;;20.55;6.65;;;19.70;99.90;;;;;;5023315;28;20437;-60
2023/09/18 04:45:12;;;;;;;17.63;5.97;;;19.70;99.90;;;;;;5013937;28;20022;-58
2023/09/18 04:47:37;;;;;;;22.48;7.03;;;19.70;99.90;;;;;;5027591;28;20060;-61
2023/09/18 04:50:06;;;;;;;16.58;5.85;;;19.60;99.90;;;;;;5018502;28;20061;-60
2023/09/18 04:52:32;;;;;;;16.30;5.95;;;19.60;99.90;;;;;;5021680;28;20109;-60
2023/09/18 04:54:57;;;;;;;16.42;5.95;;;19.50;99.90;;;;;;5018659;28;20100;-61
2023/09/18 04:57:23;;;;;;;14.98;5.85;;;19.60;99.90;;;;;;5026551;28;20030;-59
2023/09/18 04:59:49;;;;;;;21.40;6.28;;;19.60;99.90;;;;;;5021418;28;20072;-58
2023/09/18 05:02:14;;;;;;;20.90;7.45;;;19.60;99.90;;;;;;5011749;28;20026;-58
2023/09/18 05:04:40;;;;;;;14.23;7.00;;;19.60;99.90;;;;;;5019526;28;20025;-60
2023/09/18 05:07:05;;;;;;;14.60;5.55;;;19.70;99.90;;;;;;5027468;28;20550;-60
2023/09/18 05:09:32;;;;;;;16.67;5.30;;;19.70;99.90;;;;;;5020156;28;20511;-62
2023/09/18 05:11:58;;;;;;;20.30;6.70;;;19.70;99.90;;;;;;5017844;28;20105;-60
2023/09/18 05:14:23;;;;;;;12.48;5.47;;;19.70;99.90;;;;;;5018282;28;20029;-59
2023/09/18 05:16:49;;;;;;;16.27;6.00;;;19.70;99.90;;;;;;5029613;28;20033;-58
2023/09/18 05:19:14;;;;;;;12.68;6.00;;;19.70;99.90;;;;;;5027329;28;20022;-59
2023/09/18 05:21:40;;;;;;;13.38;5.93;;;19.70;99.90;;;;;;5029219;28;20033;-61
2023/09/18 05:24:05;;;;;;;17.08;5.90;;;19.70;99.90;;;;;;5015344;28;20036;-55
2023/09/18 05:26:31;;;;;;;20.30;6.85;;;19.70;99.90;;;;;;5021170;28;20476;-55
2023/09/18 05:28:57;;;;;;;14.43;6.18;;;19.70;99.90;;;;;;5022073;28;20022;-61
2023/09/18 05:31:24;;;;;;;17.55;5.53;;;19.60;99.90;;;;;;5017072;28;20407;-58
2023/09/18 05:33:50;;;;;;;15.55;5.72;;;19.60;99.90;;;;;;5013124;28;20389;-56
2023/09/18 05:36:15;;;;;;;14.02;5.82;;;19.60;99.90;;;;;;5014562;28;20105;-56
2023/09/18 05:38:43;;;;;;;17.00;5.85;;;19.60;99.90;;;;;;5024317;28;20030;-55
2023/09/18 05:41:09;;;;;;;18.33;6.72;;;19.60;99.90;;;;;;5026182;28;20025;-59
2023/09/18 05:43:35;;;;;;;16.80;5.68;;;19.60;99.90;;;;;;5024085;28;20033;-61
2023/09/18 05:46:01;;;;;;;17.98;5.40;;;19.60;99.90;;;;;;5024332;28;20018;-58
2023/09/18 05:48:27;;;;;;;17.23;5.25;;;19.60;99.90;;;;;;5025934;28;20388;-61
2023/09/18 05:50:54;;;;;;;21.95;5.47;;;19.60;99.90;;;;;;5018324;28;20095;-59
2023/09/18 05:53:20;;;;;;;15.82;5.60;;;19.60;99.90;;;;;;5024067;28;20021;-59
2023/09/18 05:55:45;;;;;;;14.70;5.43;;;19.70;99.90;;;;;;5021098;28;20038;-59
2023/09/18 05:58:11;;;;;;;17.92;5.68;;;19.60;99.90;;;;;;5017821;28;20121;-58
2023/09/18 06:00:36;;;;;;;15.60;5.10;;;19.70;99.90;;;;;;5017416;28;20037;-59
2023/09/18 06:03:03;;;;;;;9.65;4.88;;;19.70;99.90;;;;;;5024196;28;20529;-60
2023/09/18 06:05:31;;;;;;;13.27;5.28;;;19.70;99.90;;;;;;5017850;28;20034;-57
2023/09/18 06:07:56;;;;;;;9.20;4.32;;;19.80;99.90;;;;;;5023535;28;20021;-57
2023/09/18 06:10:22;;;;;;;17.77;4.50;;;19.80;99.90;;;;;;5020331;28;20018;-54
2023/09/18 06:12:48;;;;;;;13.15;4.57;;;19.80;99.90;;;;;;5016204;28;20104;-59
2023/09/18 06:15:14;;;;;;;13.82;5.05;;;19.80;99.90;;;;;;5031895;28;20399;-57
2023/09/18 06:17:41;;;;;;;16.08;5.00;;;19.80;99.90;;;;;;5029715;28;20026;-57
2023/09/18 06:20:12;;;;;;;10.02;4.18;;;19.80;99.90;;;;;;5020325;28;20120;-57
2023/09/18 06:22:39;;;;;;;11.75;3.45;;;19.80;99.90;;;;;;5026542;28;20030;-57
2023/09/18 06:25:05;;;;;;;11.98;4.30;;;19.90;99.90;;;;;;5036649;28;20071;-55
2023/09/18 06:27:34;;;;;;;16.45;3.58;;;19.90;99.90;;;;;;5031755;28;20495;-58
2023/09/18 06:30:00;;;;;;;8.52;4.35;;;20.00;99.90;;;;;;5024480;28;20056;-59
2023/09/18 06:32:26;;;;;;;20.45;4.60;;;20.00;99.90;;;;;;5023167;28;20029;-59
2023/09/18 06:34:51;;;;;;;11.75;3.70;;;20.00;99.90;;;;;;5020947;28;20025;-60
2023/09/18 06:37:18;;;;;;;17.35;4.07;;;20.00;99.90;;;;;;5026183;28;20535;-61
2023/09/18 06:39:44;;;;;;;7.10;3.25;;;20.00;99.90;;;;;;5037070;28;20512;-59
2023/09/18 06:42:09;;;;;;;16.25;3.88;;;20.10;99.90;;;;;;5026750;28;20029;-61
2023/09/18 06:44:35;;;;;;;12.90;4.15;;;20.10;99.90;;;;;;5030533;28;20037;-60
2023/09/18 06:47:00;;;;;;;11.25;3.72;;;20.10;99.90;;;;;;5026412;28;20048;-61
2023/09/18 06:49:26;;;;;;;14.07;3.92;;;20.20;99.90;;;;;;5026118;28;20526;-60
2023/09/18 06:51:52;;;;;;;8.23;3.20;;;20.20;99.90;;;;;;5027399;28;20021;-58
2023/09/18 06:54:17;;;;;;;8.90;3.28;;;20.20;99.90;;;;;;5024968;28;20037;-56
2023/09/18 06:56:44;;;;;;;8.77;2.60;;;20.20;99.90;;;;;;5033064;28;20487;-56
2023/09/18 06:59:11;;;;;;;12.38;3.10;;;20.20;99.90;;;;;;5024145;28;20551;-60
2023/09/18 07:01:37;;;;;;;9.93;2.55;;;20.30;99.90;;;;;;5019842;28;20059;-55
2023/09/18 07:04:04;;;;;;;8.80;3.00;;;20.40;99.90;;;;;;5021914;28;20095;-60
2023/09/18 07:06:30;;;;;;;13.02;3.03;;;20.40;99.90;;;;;;5023380;28;20493;-58
2023/09/18 07:08:56;;;;;;;12.05;2.67;;;20.50;99.90;;;;;;5024738;28;20040;-59
2023/09/18 07:11:22;;;;;;;8.50;2.55;;;20.50;99.90;;;;;;5019570;28;20530;-59
2023/09/18 07:13:47;;;;;;;6.78;2.40;;;20.60;99.90;;;;;;5020788;28;20706;-58
2023/09/18 07:16:13;;;;;;;7.70;2.60;;;20.60;99.90;;;;;;5026642;28;20040;-59
2023/09/18 07:18:39;;;;;;;7.03;2.45;;;20.70;99.90;;;;;;5026205;28;20030;-57
2023/09/18 07:21:04;;;;;;;7.72;1.95;;;20.70;99.90;;;;;;5023066;28;20073;-58
2023/09/18 07:23:30;;;;;;;4.15;1.95;;;20.80;99.90;;;;;;5021901;28;20034;-59
2023/09/18 07:25:57;;;;;;;4.80;1.40;;;20.90;99.90;;;;;;5020904;28;20109;-61
2023/09/18 07:28:24;;;;;;;4.65;1.48;;;20.90;99.90;;;;;;5026497;28;20546;-58
2023/09/18 07:30:49;;;;;;;4.60;1.80;;;21.00;99.90;;;;;;5023000;28;20029;-58
2023/09/18 07:33:17;;;;;;;7.47;1.60;;;21.00;99.90;;;;;;5025036;28;20022;-61
2023/09/18 07:35:47;;;;;;;3.10;1.30;;;21.00;99.90;;;;;;5022856;28;20038;-58
2023/09/18 07:38:12;;;;;;;7.95;1.60;;;21.00;99.90;;;;;;5022632;28;20389;-57
2023/09/18 07:40:38;;;;;;;6.75;2.55;;;21.00;99.90;;;;;;5023575;28;20036;-55
2023/09/18 07:43:03;;;;;;;4.25;1.77;;;21.10;99.90;;;;;;5026111;28;20025;-61
2023/09/18 07:45:29;;;;;;;6.32;1.95;;;21.10;99.90;;;;;;5018823;28;20100;-60
2023/09/18 07:47:54;;;;;;;7.90;1.70;;;21.10;99.90;;;;;;5026202;28;20030;-59
2023/09/18 07:50:20;;;;;;;4.18;1.25;;;21.10;99.90;;;;;;5016633;28;20139;-61
2023/09/18 07:52:45;;;;;;;5.18;1.40;;;21.10;99.90;;;;;;5017093;28;20033;-59
2023/09/18 07:55:11;;;;;;;4.25;1.63;;;21.20;99.90;;;;;;5020623;28;20057;-59
2023/09/18 07:57:37;;;;;;;8.45;1.77;;;21.10;99.90;;;;;;5022269;28;20109;-59
2023/09/18 08:00:09;;;;;;;2.63;1.33;;;21.20;99.90;;;;;;5028579;28;20025;-60
2023/09/18 08:02:35;;;;;;;3.03;1.30;;;21.20;99.90;;;;;;5028049;28;20084;-60
2023/09/18 08:05:01;;;;;;;4.88;1.30;;;21.20;99.90;;;;;;5021660;28;20034;-60
2023/09/18 08:07:28;;;;;;;2.33;1.50;;;21.20;99.90;;;;;;5025576;28;20021;-61
2023/09/18 08:09:53;;;;;;;7.07;1.63;;;21.20;99.90;;;;;;5016041;28;20032;-61
2023/09/18 08:12:19;;;;;;;7.25;2.00;;;21.10;99.90;;;;;;5023070;28;20101;-58
2023/09/18 08:14:45;;;;;;;5.70;1.42;;;21.10;99.90;;;;;;5017349;28;20083;-59
2023/09/18 08:17:10;;;;;;;5.28;1.30;;;21.20;99.90;;;;;;5024348;28;20087;-57
2023/09/18 08:19:36;;;;;;;2.33;1.40;;;21.20;99.90;;;;;;5022274;28;20033;-57
2023/09/18 08:22:03;;;;;;;7.70;1.80;;;21.30;99.90;;;;;;5021264;28;20025;-60
2023/09/18 08:24:29;;;;;;;3.38;1.50;;;21.40;99.90;;;;;;5024417;28;20076;-58
2023/09/18 08:26:55;;;;;;;5.00;1.33;;;21.40;99.90;;;;;;5026396;28;20587;-56
2023/09/18 08:29:22;;;;;;;2.97;1.40;;;21.30;99.90;;;;;;5022754;28;20032;-60
2023/09/18 08:31:48;;;;;;;6.43;1.65;;;21.40;99.90;;;;;;5020449;28;20112;-58
2023/09/18 08:34:14;;;;;;;4.80;1.42;;;21.40;99.90;;;;;;5024516;28;20033;-61
2023/09/18 08:36:40;;;;;;;4.78;1.42;;;21.50;99.90;;;;;;5023678;28;20029;-58
2023/09/18 08:39:05;;;;;;;4.45;1.50;;;21.50;99.90;;;;;;5020137;28;20022;-56
2023/09/18 08:41:32;;;;;;;10.35;1.38;;;21.60;99.90;;;;;;5026649;28;20099;-61
2023/09/18 08:44:05;;;;;;;5.25;1.50;;;21.50;99.90;;;;;;5023971;28;20108;-53
2023/09/18 08:46:31;;;;;;;6.03;1.60;;;21.60;99.90;;;;;;5020335;28;20037;-60
2023/09/18 08:48:59;;;;;;;6.57;1.60;;;21.60;99.90;;;;;;5017875;28;20044;-59
2023/09/18 08:51:25;;;;;;;6.15;1.35;;;21.60;99.90;;;;;;5018852;28;20108;-58
2023/09/18 08:53:51;;;;;;;6.80;1.33;;;21.70;99.90;;;;;;5022541;28;20112;-61
2023/09/18 08:56:17;;;;;;;7.53;1.70;;;21.60;99.90;;;;;;5027567;28;20423;-61
2023/09/18 08:58:44;;;;;;;6.20;1.60;;;21.70;99.90;;;;;;5017434;28;20033;-59
2023/09/18 09:01:10;;;;;;;5.18;1.50;;;21.80;99.90;;;;;;5017887;28;20025;-60
2023/09/18 09:03:38;;;;;;;3.20;1.63;;;21.80;99.90;;;;;;5017988;28;20026;-58
2023/09/18 09:06:04;;;;;;;6.78;1.70;;;21.90;99.90;;;;;;5017347;28;20686;-60
2023/09/18 09:08:30;;;;;;;8.70;1.80;;;21.90;99.90;;;;;;5022480;28;20029;-62
2023/09/18 09:10:59;;;;;;;7.45;1.35;;;21.90;99.90;;;;;;5019759;28;20033;-59
2023/09/18 09:13:28;;;;;;;2.72;1.42;;;22.00;99.90;;;;;;5019194;28;20037;-59
2023/09/18 09:15:56;;;;;;;4.63;1.25;;;22.00;99.90;;;;;;5020280;28;20090;-61
2023/09/18 09:18:26;;;;;;;3.95;1.42;;;22.00;99.90;;;;;;5020745;28;20028;-58
2023/09/18 09:20:59;;;;;;;2.38;1.30;;;22.00;99.90;;;;;;5024530;28;20037;-59
2023/09/18 09:23:26;;;;;;;4.30;1.75;;;22.10;99.90;;;;;;5023199;28;20428;-60
2023/09/18 09:25:51;;;;;;;6.68;1.30;;;22.00;99.90;;;;;;5022896;28;20029;-61
2023/09/18 09:28:31;;;;;;;4.63;1.42;;;22.10;99.90;;;;;;5022416;28;20377;-60
2023/09/18 09:31:03;;;;;;;4.18;1.80;;;22.20;99.90;;;;;;5022207;28;20029;-56
2023/09/18 09:33:30;;;;;;;5.28;1.08;;;22.20;99.90;;;;;;5019259;28;20087;-59
2023/09/18 09:35:56;;;;;;;6.25;1.80;;;22.10;99.90;;;;;;5016109;28;20029;-60
2023/09/18 09:38:31;;;;;;;5.43;1.40;;;22.20;99.90;;;;;;5017038;28;20034;-60
2023/09/18 09:40:59;;;;;;;2.60;1.20;;;22.10;99.90;;;;;;5014611;28;20052;-60
2023/09/18 09:43:26;;;;;;;3.65;1.13;;;22.20;99.90;;;;;;5022280;28;20907;-60
2023/09/18 09:45:58;;;;;;;4.25;1.20;;;22.20;99.90;;;;;;5021441;28;20025;-62
2023/09/18 09:48:24;;;;;;;4.60;1.30;;;22.30;99.90;;;;;;5023780;28;20030;-55
2023/09/18 09:50:51;;;;;;;2.45;1.30;;;22.40;99.90;;;;;;5022685;28;20522;-58
2023/09/18 09:53:18;;;;;;;4.88;1.40;;;22.50;99.90;;;;;;5022602;28;20061;-59
2023/09/18 09:55:44;;;;;;;7.75;1.55;;;22.40;99.90;;;;;;5023997;28;20034;-58
2023/09/18 09:58:10;;;;;;;2.75;1.40;;;22.50;99.90;;;;;;5021461;28;20478;-59
2023/09/18 10:00:43;;;;;;;2.90;1.15;;;22.50;99.90;;;;;;5019480;28;20037;-57
2023/09/18 10:03:12;;;;;;;1.67;1.00;;;22.40;99.90;;;;;;5025268;28;20026;-59
2023/09/18 10:05:39;;;;;;;7.47;1.95;;;22.50;99.90;;;;;;5022446;28;20036;-59
2023/09/18 10:08:10;;;;;;;4.20;1.35;;;22.40;99.90;;;;;;5019551;28;20036;-60
2023/09/18 10:11:03;;;;;;;6.93;1.75;;;22.40;99.90;;;;;;5019370;28;20201;-58
2023/09/18 10:13:36;;;;;;;8.43;1.27;;;22.60;99.90;;;;;;5019670;28;20033;-55
2023/09/18 10:16:06;;;;;;;5.57;1.55;;;22.70;99.90;;;;;;5023598;28;20029;-58
2023/09/18 10:19:08;;;;;;;6.65;1.25;;;22.90;99.90;;;;;;5017120;28;20022;-60
2023/09/18 10:21:41;;;;;;;1.90;0.95;;;23.10;99.90;;;;;;5016706;28;20179;-58
2023/09/18 10:24:07;;;;;;;3.53;1.20;;;23.30;99.90;;;;;;5018184;28;20078;-59
2023/09/18 10:26:38;;;;;;;2.97;1.42;;;23.50;99.90;;;;;;5019346;28;20600;-56
2023/09/18 10:29:05;;;;;;;5.50;1.77;;;23.60;99.90;;;;;;5018647;28;20037;-55
2023/09/18 10:31:34;;;;;;;1.80;1.02;;;23.50;99.90;;;;;;5018736;28;20029;-58
2023/09/18 10:34:02;;;;;;;2.35;1.35;;;23.70;99.90;;;;;;5017815;28;20056;-58
2023/09/18 10:36:29;;;;;;;4.30;1.70;;;23.90;99.90;;;;;;5017856;28;20127;-58
2023/09/18 10:38:56;;;;;;;4.57;1.17;;;24.00;99.90;;;;;;5024433;28;20025;-60
2023/09/18 10:41:22;;;;;;;3.65;1.20;;;24.20;99.90;;;;;;5018134;28;20018;-60
2023/09/18 10:43:52;;;;;;;3.53;1.05;;;24.40;99.90;;;;;;5021712;28;20083;-59
2023/09/18 10:46:18;;;;;;;4.05;1.25;;;24.50;99.90;;;;;;5022415;28;20021;-58
2023/09/18 10:48:46;;;;;;;5.50;1.00;;;24.70;99.90;;;;;;5025966;28;20018;-61
2023/09/18 10:51:13;;;;;;;3.55;1.17;;;24.70;99.90;;;;;;5017397;28;20415;-56
2023/09/18 10:53:39;;;;;;;6.07;1.90;;;24.60;99.90;;;;;;5015987;28;20029;-58
2023/09/18 10:56:06;;;;;;;6.78;1.27;;;24.70;99.90;;;;;;5017668;28;20021;-61
2023/09/18 10:58:35;;;;;;;3.17;1.00;;;24.70;99.90;;;;;;5013875;28;20083;-60
2023/09/18 11:01:02;;;;;;;7.45;1.17;;;24.90;99.90;;;;;;5019571;28;20124;-56
2023/09/18 11:03:27;;;;;;;7.10;0.90;;;24.70;99.90;;;;;;5015926;28;20041;-61
2023/09/18 11:06:05;;;;;;;3.20;0.98;;;24.90;99.90;;;;;;5020137;28;20022;-58
2023/09/18 11:08:35;;;;;;;4.50;1.20;;;24.90;99.90;;;;;;5019169;28;20033;-60
2023/09/18 11:11:14;;;;;;;1.63;0.77;;;25.20;99.90;;;;;;5017757;28;20049;-54
2023/09/18 11:13:45;;;;;;;1.75;0.90;;;25.10;99.90;;;;;;5015932;28;20121;-60
2023/09/18 11:16:18;;;;;;;7.78;1.20;;;25.20;99.90;;;;;;5013976;28;20022;-58
2023/09/18 11:18:47;;;;;;;2.60;1.13;;;25.10;99.90;;;;;;5020710;28;20029;-58
2023/09/18 11:21:17;;;;;;;2.30;0.98;;;25.20;99.90;;;;;;5016324;28;20038;-60
2023/09/18 11:23:42;;;;;;;1.60;1.15;;;25.40;99.90;;;;;;5019641;28;20021;-59
2023/09/18 11:26:15;;;;;;;1.95;1.23;;;25.20;99.90;;;;;;5017999;28;20029;-57
2023/09/18 11:28:42;;;;;;;3.00;1.25;;;25.50;99.90;;;;;;5016375;28;20017;-57
2023/09/18 11:31:09;;;;;;;1.83;1.20;;;25.50;99.90;;;;;;5015839;28;20033;-59
2023/09/18 11:33:37;;;;;;;5.35;1.52;;;25.70;99.90;;;;;;5014112;28;20033;-59
2023/09/18 11:36:11;;;;;;;2.83;1.23;;;25.80;99.90;;;;;;5014439;28;20034;-59
2023/09/18 11:38:56;;;;;;;3.80;1.15;;;25.80;99.90;;;;;;5021735;28;20049;-59
2023/09/18 11:41:25;;;;;;;4.15;1.40;;;26.00;99.90;;;;;;5021663;28;20045;-57
2023/09/18 11:43:51;;;;;;;3.88;1.20;;;26.20;99.90;;;;;;5014654;28;20108;-58
2023/09/18 11:46:21;;;;;;;4.85;1.30;;;26.40;99.90;;;;;;5015163;28;20026;-57
2023/09/18 11:48:50;;;;;;;2.17;1.17;;;26.60;99.90;;;;;;5021902;28;20037;-59
2023/09/18 11:51:21;;;;;;;2.30;1.23;;;26.20;99.90;;;;;;5022176;28;20402;-59
2023/09/18 11:53:49;;;;;;;3.17;1.00;;;26.10;99.90;;;;;;5017226;28;20430;-58
2023/09/18 11:56:17;;;;;;;5.20;1.42;;;26.40;99.90;;;;;;5023974;28;20026;-58
2023/09/18 11:58:50;;;;;;;4.03;1.23;;;26.50;99.90;;;;;;5021226;28;20029;-58
2023/09/18 12:01:18;;;;;;;6.17;1.00;;;26.60;99.90;;;;;;5017328;28;20365;-58
2023/09/18 12:03:44;;;;;;;3.35;1.00;;;26.70;99.90;;;;;;5021795;28;20116;-57
2023/09/18 12:06:13;;;;;;;7.05;1.27;;;26.80;99.90;;;;;;5016252;28;20526;-55
2023/09/18 12:08:42;;;;;;;1.95;0.80;;;26.60;99.90;;;;;;5014888;28;21268;-59
2023/09/18 12:11:08;;;;;;;4.40;0.93;;;26.90;99.90;;;;;;5015602;28;20567;-60
2023/09/18 12:13:34;;;;;;;3.55;1.13;;;27.10;99.90;;;;;;5018071;28;20198;-60
2023/09/18 12:16:01;;;;;;;3.00;1.02;;;26.90;99.90;;;;;;5026286;28;20049;-57
2023/09/18 12:18:30;;;;;;;1.25;0.93;;;26.80;99.90;;;;;;5020280;28;20514;-59
2023/09/18 12:20:58;;;;;;;2.45;1.10;;;26.60;99.90;;;;;;5020088;28;20025;-60
2023/09/18 12:23:24;;;;;;;6.22;1.15;;;26.60;99.90;;;;;;5023942;28;20017;-55
2023/09/18 12:25:56;;;;;;;2.70;1.13;;;27.00;99.90;;;;;;5020032;28;20033;-57
2023/09/18 12:28:22;;;;;;;6.05;1.33;;;27.20;99.90;;;;;;5013774;28;20131;-60
2023/09/18 12:30:50;;;;;;;5.30;1.40;;;27.00;99.90;;;;;;5018309;28;20056;-58
2023/09/18 12:33:17;;;;;;;5.57;1.13;;;27.20;99.90;;;;;;5016528;28;20419;-58
2023/09/18 12:35:42;;;;;;;2.65;1.20;;;27.20;99.90;;;;;;5021142;28;20423;-59
2023/09/18 12:38:25;;;;;;;3.35;1.17;;;26.80;99.90;;;;;;5021353;28;20026;-59
2023/09/18 12:40:51;;;;;;;9.70;1.30;;;27.40;99.90;;;;;;5020673;28;20040;-61